createdAt,value
2023-05-07T00:04:14.584Z,39.33
2023-05-07T00:06:41.508Z,30.83
2023-05-07T00:09:08.406Z,27.65
2023-05-07T00:11:37.297Z,29.75
2023-05-07T00:14:04.508Z,29.60
2023-05-07T00:16:31.378Z,33.17
2023-05-07T00:18:58.241Z,18.20
2023-05-07T00:21:27.701Z,27.75
2023-05-07T00:23:55.345Z,17.77
2023-05-07T00:26:22.811Z,21.95
2023-05-07T00:28:51.486Z,16.00
2023-05-07T00:31:18.345Z,42.10
2023-05-07T00:33:45.222Z,32.42
2023-05-07T00:36:30.545Z,32.97
2023-05-07T00:38:58.471Z,37.45
2023-05-07T00:41:25.887Z,22.35
2023-05-07T00:43:52.898Z,24.65
2023-05-07T00:46:21.888Z,34.83
2023-05-07T00:48:49.518Z,46.83
2023-05-07T00:51:16.717Z,50.17
2023-05-07T00:53:43.695Z,40.20
2023-05-07T00:56:10.959Z,30.58
2023-05-07T00:58:38.114Z,48.38
2023-05-07T01:01:04.895Z,46.28
2023-05-07T01:03:31.816Z,32.70
2023-05-07T01:06:00.970Z,51.90
2023-05-07T01:08:30.632Z,31.55
2023-05-07T01:10:58.480Z,60.88
2023-05-07T01:13:26.308Z,87.95
2023-05-07T01:15:53.341Z,37.47
2023-05-07T01:18:20.488Z,32.33
2023-05-07T01:20:47.321Z,52.58
2023-05-07T01:23:51.962Z,75.70
2023-05-07T01:26:20.682Z,32.90
2023-05-07T01:28:47.876Z,40.95
2023-05-07T01:31:15.397Z,57.67
2023-05-07T01:33:45.558Z,52.70
2023-05-07T01:36:13.994Z,51.20
2023-05-07T01:38:41.496Z,32.55
2023-05-07T01:41:08.662Z,35.13
2023-05-07T01:43:55.062Z,37.78
2023-05-07T01:46:22.771Z,26.60
2023-05-07T01:48:51.414Z,49.90
2023-05-07T01:51:18.403Z,34.38
2023-05-07T01:53:46.783Z,26.65
2023-05-07T01:56:13.794Z,29.80
2023-05-07T01:58:42.602Z,44.15
2023-05-07T02:01:09.613Z,33.92
2023-05-07T02:03:37.056Z,28.98
2023-05-07T02:06:10.917Z,19.83
2023-05-07T02:08:40.169Z,21.75
2023-05-07T02:11:07.156Z,28.48
2023-05-07T02:13:38.070Z,32.00
2023-05-07T02:16:05.354Z,27.33
2023-05-07T02:18:32.929Z,31.73
2023-05-07T02:20:59.879Z,36.17
2023-05-07T02:23:26.693Z,32.05
2023-05-07T02:25:53.813Z,27.08
2023-05-07T02:28:20.845Z,17.88
2023-05-07T02:30:54.437Z,26.70
2023-05-07T02:33:21.812Z,36.03
2023-05-07T02:35:49.225Z,33.00
2023-05-07T02:38:16.769Z,21.25
2023-05-07T02:41:02.425Z,21.95
2023-05-07T02:43:29.959Z,24.73
2023-05-07T02:46:07.938Z,23.98
2023-05-07T02:48:37.881Z,29.38
2023-05-07T02:51:06.528Z,23.80
2023-05-07T02:53:35.325Z,19.65
2023-05-07T02:56:02.792Z,15.60
2023-05-07T02:58:29.775Z,34.63
2023-05-07T03:01:15.843Z,20.50
2023-05-07T03:03:51.099Z,19.45
2023-05-07T03:06:17.990Z,46.28
2023-05-07T03:08:44.817Z,18.35
2023-05-07T03:11:11.692Z,20.77
2023-05-07T03:13:38.504Z,33.75
2023-05-07T03:16:05.777Z,16.25
2023-05-07T03:18:32.615Z,22.45
2023-05-07T03:20:59.772Z,35.03
2023-05-07T03:23:26.630Z,35.03
2023-05-07T03:25:53.440Z,31.27
2023-05-07T03:28:20.321Z,47.47
2023-05-07T03:30:52.749Z,40.55
2023-05-07T03:33:19.710Z,36.80
2023-05-07T03:35:47.428Z,66.45
2023-05-07T03:38:19.799Z,32.85
2023-05-07T03:40:46.937Z,35.15
2023-05-07T03:43:13.970Z,48.08
2023-05-07T03:45:45.230Z,66.82
2023-05-07T03:48:19.929Z,61.78
2023-05-07T03:50:48.841Z,29.67
2023-05-07T03:53:17.747Z,47.00
2023-05-07T03:55:45.058Z,64.80
2023-05-07T03:58:12.404Z,84.15
2023-05-07T04:03:28.231Z,71.85
2023-05-07T04:05:58.518Z,48.88
2023-05-07T04:08:25.338Z,53.42
2023-05-07T04:11:13.338Z,60.88
2023-05-07T04:13:40.310Z,48.70
2023-05-07T04:16:09.166Z,78.40
2023-05-07T04:21:22.728Z,76.32
2023-05-07T04:23:51.417Z,67.07
2023-05-07T04:26:36.787Z,57.40
2023-05-07T04:29:03.821Z,68.47
2023-05-07T04:31:52.999Z,83.05
2023-05-07T04:34:20.295Z,50.40
2023-05-07T04:36:47.287Z,79.53
2023-05-07T04:39:14.537Z,74.28
2023-05-07T04:41:44.242Z,38.10
2023-05-07T04:44:11.957Z,73.43
2023-05-07T04:46:38.808Z,56.35
2023-05-07T04:49:06.748Z,44.28
2023-05-07T04:51:33.845Z,78.70
2023-05-07T04:54:01.030Z,56.78
2023-05-07T04:56:33.433Z,57.75
2023-05-07T04:59:01.766Z,73.07
2023-05-07T05:01:29.384Z,83.55
2023-05-07T05:03:56.491Z,77.43
2023-05-07T05:06:23.297Z,85.20
2023-05-07T05:08:51.376Z,70.57
2023-05-07T05:11:18.329Z,49.28
2023-05-07T05:13:45.666Z,104.63
2023-05-07T05:16:17.367Z,54.03
2023-05-07T05:18:44.522Z,62.20
2023-05-07T05:21:13.759Z,127.18
2023-05-07T05:23:42.259Z,101.93
2023-05-07T05:26:09.389Z,84.38
2023-05-07T05:28:37.153Z,84.50
2023-05-07T05:31:04.752Z,85.75
2023-05-07T05:33:35.011Z,99.00
2023-05-07T05:36:05.456Z,48.22
2023-05-07T05:38:33.022Z,97.95
2023-05-07T05:40:59.793Z,74.30
2023-05-07T05:43:27.111Z,101.93
2023-05-07T05:45:54.005Z,72.38
2023-05-07T05:48:21.250Z,122.40
2023-05-07T05:50:48.434Z,88.28
2023-05-07T05:53:16.642Z,98.90
2023-05-07T05:55:45.202Z,95.28
2023-05-07T05:58:13.244Z,75.60
2023-05-07T06:00:45.961Z,89.00
2023-05-07T06:03:14.499Z,93.03
2023-05-07T06:05:42.415Z,73.05
2023-05-07T06:08:09.193Z,52.17
2023-05-07T06:10:38.192Z,101.97
2023-05-07T06:13:07.071Z,85.90
2023-05-07T06:15:35.164Z,93.57
2023-05-07T06:18:07.461Z,107.43
2023-05-07T06:20:34.374Z,91.57
2023-05-07T06:23:04.177Z,67.38
2023-05-07T06:25:51.890Z,68.55
2023-05-07T06:28:21.535Z,86.25
2023-05-07T06:30:50.951Z,49.97
2023-05-07T06:33:36.393Z,57.63
2023-05-07T06:36:03.904Z,90.50
2023-05-07T06:38:31.935Z,57.03
2023-05-07T06:40:58.930Z,63.00
2023-05-07T06:43:25.695Z,52.42
2023-05-07T06:46:08.056Z,57.00
2023-05-07T06:48:35.630Z,91.40
2023-05-07T06:51:05.851Z,104.13
2023-05-07T06:53:33.217Z,54.92
2023-05-07T06:56:01.746Z,92.45
2023-05-07T06:58:28.788Z,109.85
2023-05-07T07:00:55.587Z,86.68
2023-05-07T07:03:23.155Z,75.32
2023-05-07T07:06:11.708Z,105.40
2023-05-07T07:08:39.862Z,81.20
2023-05-07T07:11:07.654Z,102.15
2023-05-07T07:13:34.565Z,106.32
2023-05-07T07:16:01.707Z,149.88
2023-05-07T07:18:29.186Z,122.88
2023-05-07T07:23:40.521Z,120.15
2023-05-07T07:26:07.851Z,84.00
2023-05-07T07:28:34.855Z,107.55
2023-05-07T07:31:20.563Z,85.15
2023-05-07T07:33:53.074Z,110.15
2023-05-07T07:36:22.041Z,62.15
2023-05-07T07:38:50.796Z,74.00
2023-05-07T07:41:18.334Z,59.17
2023-05-07T07:43:45.341Z,40.70
2023-05-07T07:46:12.215Z,59.33
2023-05-07T07:48:39.271Z,38.80
2023-05-07T07:51:06.222Z,26.13
2023-05-07T07:53:33.199Z,35.55
2023-05-07T07:56:00.514Z,21.58
2023-05-07T07:58:31.217Z,25.08
2023-05-07T08:00:59.260Z,22.17
2023-05-07T08:03:26.677Z,15.98
2023-05-07T08:05:58.245Z,19.35
2023-05-07T08:08:25.980Z,21.15
2023-05-07T08:13:39.711Z,37.45
2023-05-07T08:16:06.774Z,25.15
2023-05-07T08:18:36.491Z,15.75
2023-05-07T08:21:04.201Z,14.00
2023-05-07T08:23:32.847Z,10.45
2023-05-07T08:26:19.055Z,13.13
2023-05-07T08:28:45.893Z,15.90
2023-05-07T08:31:12.706Z,18.80
2023-05-07T08:33:41.795Z,13.27
2023-05-07T08:36:08.851Z,20.50
2023-05-07T08:38:35.934Z,34.67
2023-05-07T08:41:02.799Z,17.58
2023-05-07T08:43:34.039Z,34.88
2023-05-07T08:46:03.652Z,49.40
2023-05-07T08:48:36.186Z,85.53
2023-05-07T08:51:14.356Z,74.93
2023-05-07T08:53:42.838Z,98.03
2023-05-07T08:56:13.096Z,75.85
2023-05-07T08:58:40.678Z,70.70
2023-05-07T09:01:15.663Z,111.60
2023-05-07T09:03:47.339Z,101.55
2023-05-07T09:06:16.580Z,73.90
2023-05-07T09:08:56.650Z,68.38
2023-05-07T09:11:27.237Z,39.40
2023-05-07T09:13:58.737Z,30.30
2023-05-07T09:16:27.345Z,43.75
2023-05-07T09:18:55.755Z,28.17
2023-05-07T09:21:24.075Z,27.20
2023-05-07T09:23:56.406Z,25.55
2023-05-07T09:26:29.623Z,34.35
2023-05-07T09:28:56.674Z,35.58
2023-05-07T09:31:27.196Z,55.35
2023-05-07T09:33:56.990Z,78.63
2023-05-07T09:36:26.061Z,116.78
2023-05-07T09:38:52.997Z,102.57
2023-05-07T09:41:20.401Z,88.93
2023-05-07T09:46:56.605Z,123.57
2023-05-07T09:49:38.490Z,107.95
2023-05-07T09:52:10.110Z,131.88
2023-05-07T09:54:57.895Z,95.38
2023-05-07T09:57:28.356Z,88.68
2023-05-07T10:00:02.945Z,97.80
2023-05-07T10:02:38.055Z,108.72
2023-05-07T10:05:06.038Z,69.47
2023-05-07T10:07:34.845Z,45.97
2023-05-07T10:10:07.942Z,112.30
2023-05-07T10:12:58.240Z,115.03
2023-05-07T10:15:32.580Z,65.28
2023-05-07T10:18:20.079Z,35.33
2023-05-07T10:20:52.535Z,112.07
2023-05-07T10:23:24.925Z,145.77
2023-05-07T10:26:00.919Z,85.93
2023-05-07T10:28:35.918Z,68.72
2023-05-07T10:31:51.493Z,41.33
2023-05-07T10:34:25.418Z,24.45
2023-05-07T10:36:53.685Z,18.02
2023-05-07T10:39:22.755Z,14.75
2023-05-07T10:41:50.731Z,13.15
2023-05-07T10:44:29.030Z,10.85
2023-05-07T10:47:07.232Z,11.95
2023-05-07T10:49:34.081Z,10.38
2023-05-07T10:52:32.009Z,10.70
2023-05-07T10:55:22.503Z,7.03
2023-05-07T11:01:15.919Z,5.47
2023-05-07T11:04:16.056Z,6.40
2023-05-07T11:07:10.253Z,6.57
2023-05-07T11:09:57.056Z,7.20
2023-05-07T11:12:39.104Z,8.85
2023-05-07T11:15:48.626Z,6.85
2023-05-07T11:18:52.641Z,6.57
2023-05-07T11:21:38.161Z,5.43
2023-05-07T11:24:40.889Z,5.22
2023-05-07T11:27:09.295Z,8.32
2023-05-07T11:29:36.969Z,7.22
2023-05-07T11:32:08.394Z,7.85
2023-05-07T11:34:46.518Z,7.07
2023-05-07T11:37:18.523Z,8.50
2023-05-07T11:40:05.175Z,8.50
2023-05-07T11:42:43.826Z,6.47
2023-05-07T11:45:11.266Z,8.35
2023-05-07T11:47:38.655Z,9.60
2023-05-07T11:50:09.654Z,9.38
2023-05-07T11:52:37.095Z,11.65
2023-05-07T11:55:05.712Z,11.60
2023-05-07T11:57:34.758Z,13.10
2023-05-07T12:00:04.843Z,7.75
2023-05-07T12:02:39.826Z,11.35
2023-05-07T12:05:07.062Z,10.88
2023-05-07T12:07:35.011Z,7.88
2023-05-07T12:10:08.603Z,6.03
2023-05-07T12:12:47.576Z,6.32
2023-05-07T12:15:23.804Z,8.00
2023-05-07T12:17:51.648Z,9.02
2023-05-07T12:20:18.845Z,12.77
2023-05-07T12:22:46.031Z,14.15
2023-05-07T12:25:13.013Z,17.15
2023-05-07T12:27:40.512Z,15.38
2023-05-07T12:30:10.530Z,13.43
2023-05-07T12:32:38.006Z,19.50
2023-05-07T12:35:07.529Z,15.13
2023-05-07T12:37:34.597Z,11.13
2023-05-07T12:40:10.131Z,14.30
2023-05-07T12:42:38.292Z,12.82
2023-05-07T12:45:16.667Z,13.20
2023-05-07T12:48:04.113Z,12.75
2023-05-07T12:50:34.523Z,11.80
2023-05-07T12:55:48.310Z,10.73
2023-05-07T12:58:28.847Z,11.20
2023-05-07T13:01:00.433Z,10.32
2023-05-07T13:03:31.481Z,13.63
2023-05-07T13:06:16.115Z,11.38
2023-05-07T13:08:46.184Z,14.90
2023-05-07T13:11:13.736Z,15.68
2023-05-07T13:13:42.150Z,12.63
2023-05-07T13:16:11.445Z,18.42
2023-05-07T13:18:40.232Z,18.83
2023-05-07T13:21:07.659Z,20.42
2023-05-07T13:23:35.155Z,18.90
2023-05-07T13:26:08.539Z,16.95
2023-05-07T13:28:38.479Z,17.90
2023-05-07T13:31:05.251Z,17.85
2023-05-07T13:33:32.012Z,16.40
2023-05-07T13:35:58.957Z,17.00
2023-05-07T13:38:26.064Z,13.15
2023-05-07T13:40:53.027Z,13.18
2023-05-07T13:43:20.278Z,12.75
2023-05-07T13:45:47.132Z,10.98
2023-05-07T13:48:14.055Z,10.55
2023-05-07T13:50:40.995Z,9.65
2023-05-07T13:53:09.249Z,10.98
2023-05-07T13:55:36.026Z,8.68
2023-05-07T13:58:07.039Z,10.35
2023-05-07T14:00:34.647Z,8.60
2023-05-07T14:03:01.568Z,7.22
2023-05-07T14:05:29.140Z,9.82
2023-05-07T14:07:58.449Z,5.78
2023-05-07T14:10:25.814Z,5.60
2023-05-07T14:12:53.787Z,5.32
2023-05-07T14:15:20.888Z,3.53
2023-05-07T14:17:48.073Z,4.03
2023-05-07T14:20:15.161Z,5.43
2023-05-07T14:22:42.262Z,2.72
2023-05-07T14:25:10.795Z,3.30
2023-05-07T14:27:37.967Z,3.33
2023-05-07T14:30:04.988Z,4.10
2023-05-07T14:32:31.933Z,3.47
2023-05-07T14:34:58.824Z,6.65
2023-05-07T14:37:25.736Z,5.05
2023-05-07T14:39:52.488Z,4.63
2023-05-07T14:42:19.276Z,4.90
2023-05-07T14:45:06.201Z,5.60
2023-05-07T14:47:33.062Z,7.10
2023-05-07T14:50:02.189Z,9.40
2023-05-07T14:52:29.203Z,7.45
2023-05-07T14:54:56.017Z,8.68
2023-05-07T14:57:23.085Z,10.60
2023-05-07T14:59:50.248Z,14.88
2023-05-07T15:02:20.979Z,15.20
2023-05-07T15:04:48.348Z,14.65
2023-05-07T15:07:16.483Z,22.20
2023-05-07T15:09:44.007Z,23.65
2023-05-07T15:12:11.054Z,24.52
2023-05-07T15:14:38.369Z,19.33
2023-05-07T15:17:05.322Z,27.40
2023-05-07T15:19:32.075Z,27.27
2023-05-07T15:22:03.291Z,30.95
2023-05-07T15:24:31.000Z,36.30
2023-05-07T15:26:59.207Z,30.35
2023-05-07T15:29:26.165Z,36.10
2023-05-07T15:32:11.584Z,64.50
2023-05-07T15:34:38.476Z,60.83
2023-05-07T15:37:05.279Z,70.47
2023-05-07T15:39:32.172Z,69.35
2023-05-07T15:41:59.032Z,72.70
2023-05-07T15:44:29.544Z,45.70
2023-05-07T15:46:56.376Z,69.55
2023-05-07T15:49:23.165Z,78.15
2023-05-07T15:51:51.860Z,80.30
2023-05-07T15:54:21.087Z,64.63
2023-05-07T15:56:48.143Z,79.45
2023-05-07T15:59:16.515Z,63.28
2023-05-07T16:01:45.775Z,66.95
2023-05-07T16:04:12.690Z,77.53
2023-05-07T16:06:39.739Z,70.40
2023-05-07T16:09:06.645Z,84.10
2023-05-07T16:11:34.281Z,70.13
2023-05-07T16:14:01.556Z,81.55
2023-05-07T16:16:30.337Z,97.88
2023-05-07T16:18:57.547Z,81.35
2023-05-07T16:21:24.383Z,61.53
2023-05-07T16:23:51.334Z,95.95
2023-05-07T16:26:18.103Z,89.68
2023-05-07T16:28:45.465Z,69.35
2023-05-07T16:31:12.362Z,69.90
2023-05-07T16:33:39.228Z,89.70
2023-05-07T16:36:06.722Z,76.55
2023-05-07T16:38:34.342Z,66.80
2023-05-07T16:41:01.572Z,58.47
2023-05-07T16:43:28.466Z,78.05
2023-05-07T16:45:55.385Z,55.85
2023-05-07T16:48:22.283Z,71.43
2023-05-07T16:50:49.274Z,93.60
2023-05-07T16:53:16.136Z,73.18
2023-05-07T16:55:43.039Z,51.00
2023-05-07T16:58:11.059Z,63.83
2023-05-07T17:00:50.081Z,62.38
2023-05-07T17:03:18.476Z,65.63
2023-05-07T17:06:03.959Z,84.10
2023-05-07T17:08:30.777Z,83.35
2023-05-07T17:10:57.602Z,67.55
2023-05-07T17:13:24.609Z,71.03
2023-05-07T17:15:51.612Z,92.07
2023-05-07T17:18:18.387Z,66.45
2023-05-07T17:20:45.188Z,74.60
2023-05-07T17:23:12.111Z,102.38
2023-05-07T17:25:39.192Z,85.80
2023-05-07T17:28:06.113Z,85.35
2023-05-07T17:30:32.980Z,111.22
2023-05-07T17:33:09.377Z,76.28
2023-05-07T17:35:44.087Z,76.10
2023-05-07T17:38:10.946Z,93.68
2023-05-07T17:40:37.863Z,74.82
2023-05-07T17:43:04.593Z,79.70
2023-05-07T17:45:32.697Z,78.28
2023-05-07T17:47:59.524Z,83.32
2023-05-07T17:50:26.413Z,54.60
2023-05-07T17:52:53.157Z,82.43
2023-05-07T17:55:20.084Z,88.28
2023-05-07T17:57:46.907Z,79.78
2023-05-07T18:00:14.823Z,71.03
2023-05-07T18:02:42.095Z,74.40
2023-05-07T18:05:09.562Z,57.33
2023-05-07T18:07:36.585Z,78.45
2023-05-07T18:10:41.150Z,86.63
2023-05-07T18:13:08.005Z,87.90
2023-05-07T18:15:35.020Z,109.55
2023-05-07T18:18:02.008Z,69.93
2023-05-07T18:20:28.859Z,85.72
2023-05-07T18:22:55.874Z,79.75
2023-05-07T18:25:22.713Z,84.72
2023-05-07T18:27:49.491Z,99.55
2023-05-07T18:30:16.314Z,73.72
2023-05-07T18:32:43.088Z,76.15
2023-05-07T18:35:10.053Z,65.75
2023-05-07T18:37:36.798Z,73.88
2023-05-07T18:40:05.162Z,94.50
2023-05-07T18:42:34.589Z,68.72
2023-05-07T18:45:03.418Z,74.38
2023-05-07T18:47:30.160Z,89.10
2023-05-07T18:49:56.961Z,57.92
2023-05-07T18:52:26.150Z,111.20
2023-05-07T18:54:53.081Z,82.18
2023-05-07T18:57:19.891Z,111.68
2023-05-07T18:59:46.822Z,80.68
2023-05-07T19:02:31.990Z,80.85
2023-05-07T19:04:58.957Z,82.07
2023-05-07T19:07:25.899Z,83.70
2023-05-07T19:10:04.309Z,74.57
2023-05-07T19:12:32.852Z,89.38
2023-05-07T19:14:59.693Z,80.95
2023-05-07T19:17:26.459Z,86.30
2023-05-07T19:19:53.272Z,81.50
2023-05-07T19:22:20.075Z,99.82
2023-05-07T19:24:46.975Z,72.03
2023-05-07T19:27:13.764Z,93.60
2023-05-07T19:29:40.802Z,92.50
2023-05-07T19:32:07.742Z,84.35
2023-05-07T19:34:35.867Z,69.72
2023-05-07T19:37:02.795Z,98.13
2023-05-07T19:39:29.592Z,96.40
2023-05-07T19:41:56.471Z,106.88
2023-05-07T19:44:23.282Z,103.13
2023-05-07T19:46:50.209Z,132.50
2023-05-07T19:49:17.045Z,89.13
2023-05-07T19:51:43.900Z,80.57
2023-05-07T19:54:10.675Z,98.28
2023-05-07T19:56:37.672Z,91.47
2023-05-07T19:59:04.434Z,71.40
2023-05-07T20:01:50.114Z,86.10
2023-05-07T20:04:16.917Z,78.30
2023-05-07T20:06:43.803Z,93.72
2023-05-07T20:09:12.836Z,78.30
2023-05-07T20:11:40.225Z,89.78
2023-05-07T20:14:07.034Z,71.13
2023-05-07T20:16:34.007Z,96.57
2023-05-07T20:19:00.842Z,97.35
2023-05-07T20:21:27.668Z,78.70
2023-05-07T20:23:54.538Z,59.58
2023-05-07T20:26:21.465Z,98.35
2023-05-07T20:28:48.235Z,73.75
2023-05-07T20:31:16.397Z,44.25
2023-05-07T20:33:43.377Z,87.15
2023-05-07T20:36:10.454Z,84.80
2023-05-07T20:38:37.363Z,59.00
2023-05-07T20:41:12.572Z,90.80
2023-05-07T20:43:39.408Z,63.83
2023-05-07T20:46:07.741Z,74.95
2023-05-07T20:48:53.405Z,48.65
2023-05-07T20:51:38.608Z,52.85
2023-05-07T20:54:08.614Z,65.18
2023-05-07T20:56:35.478Z,107.78
2023-05-07T20:59:02.380Z,68.13
2023-05-07T21:01:29.661Z,59.75
2023-05-07T21:03:56.690Z,67.88
2023-05-07T21:06:23.509Z,48.28
2023-05-07T21:08:50.345Z,54.00
2023-05-07T21:11:17.318Z,51.28
2023-05-07T21:13:44.113Z,52.33
2023-05-07T21:16:10.938Z,56.25
2023-05-07T21:18:37.864Z,59.53
2023-05-07T21:21:09.049Z,105.18
2023-05-07T21:23:36.254Z,70.97
2023-05-07T21:26:03.436Z,71.45
2023-05-07T21:31:14.422Z,76.85
2023-05-07T21:33:43.208Z,48.53
2023-05-07T21:36:11.206Z,65.93
2023-05-07T21:38:38.689Z,55.33
2023-05-07T21:41:05.581Z,79.47
2023-05-07T21:43:32.550Z,41.15
2023-05-07T21:45:59.877Z,67.93
2023-05-07T21:48:27.126Z,60.28
2023-05-07T21:51:04.848Z,49.35
2023-05-07T21:53:32.186Z,76.03
2023-05-07T21:56:05.323Z,54.10
2023-05-07T21:58:32.485Z,52.92
2023-05-07T22:01:01.051Z,43.50
2023-05-07T22:03:27.985Z,44.42
2023-05-07T22:05:54.977Z,71.95
2023-05-07T22:08:40.379Z,36.80
2023-05-07T22:11:07.298Z,78.18
2023-05-07T22:13:34.155Z,79.40
2023-05-07T22:16:01.085Z,73.18
2023-05-07T22:18:27.898Z,53.17
2023-05-07T22:20:54.739Z,95.00
2023-05-07T22:23:21.763Z,54.22
2023-05-07T22:25:48.508Z,75.70
2023-05-07T22:28:15.264Z,58.72
2023-05-07T22:30:42.102Z,96.63
2023-05-07T22:33:08.898Z,72.63
2023-05-07T22:35:35.829Z,103.18
2023-05-07T22:38:02.688Z,91.88
2023-05-07T22:40:29.581Z,87.60
2023-05-07T22:42:56.447Z,62.92
2023-05-07T22:45:23.257Z,104.78
2023-05-07T22:47:50.057Z,126.03
2023-05-07T22:50:17.186Z,55.72
2023-05-07T22:52:44.055Z,117.75
2023-05-07T22:55:10.953Z,57.35
2023-05-07T22:57:37.718Z,133.60
2023-05-07T23:00:05.881Z,113.47
2023-05-07T23:02:32.953Z,106.32
2023-05-07T23:05:01.075Z,65.55
2023-05-07T23:07:28.370Z,133.27
2023-05-07T23:09:55.214Z,92.60
2023-05-07T23:12:22.008Z,40.10
2023-05-07T23:14:48.845Z,81.65
2023-05-07T23:17:15.666Z,130.05
2023-05-07T23:19:43.076Z,106.25
2023-05-07T23:22:10.508Z,78.47
2023-05-07T23:24:37.456Z,41.45
2023-05-07T23:27:06.189Z,40.30
2023-05-07T23:29:33.274Z,42.53
2023-05-07T23:32:00.775Z,85.68
2023-05-07T23:34:27.763Z,46.33
2023-05-07T23:36:54.649Z,51.22
2023-05-07T23:39:21.483Z,45.17
2023-05-07T23:41:48.437Z,61.50
2023-05-07T23:44:16.689Z,61.55
2023-05-07T23:46:44.634Z,41.58
2023-05-07T23:49:11.981Z,57.30
2023-05-07T23:51:38.885Z,44.33
2023-05-07T23:54:06.719Z,39.00
2023-05-07T23:56:33.703Z,70.63
2023-05-07T23:59:01.045Z,64.38
